Time;durP1;ratioP1;P1;durP2;ratioP2;P2;SDS_P1;SDS_P2;PMS_P1;PMS_P2;Temp;Humidity;BMP_temperature;BMP_pressure;BME280_temperature;BME280_humidity;BME280_pressure;Samples;Min_cycle;Max_cycle;Signal;HPM_P1;HPM_P2
2023/01/31 00:01:18;;;;;;;22.23;7.73;;;;;;;0.97;100.00;98595.03;5046370;23;20215;-67
2023/01/31 00:03:46;;;;;;;19.17;7.17;;;;;;;1.01;100.00;98591.19;5027616;23;22176;-67
2023/01/31 00:06:29;;;;;;;18.50;7.40;;;;;;;1.06;100.00;98599.47;5066836;23;21316;-67
2023/01/31 00:08:57;;;;;;;16.30;7.17;;;;;;;1.05;100.00;98597.81;5053337;23;20398;-65
2023/01/31 00:11:25;;;;;;;21.83;6.97;;;;;;;1.13;100.00;98610.28;5072609;23;20418;-69
2023/01/31 00:13:52;;;;;;;22.10;7.87;;;;;;;1.09;100.00;98616.72;5075916;23;20341;-69
2023/01/31 00:16:20;;;;;;;19.17;8.13;;;;;;;1.10;100.00;98616.59;5051546;23;20216;-67
2023/01/31 00:18:46;;;;;;;24.53;8.00;;;;;;;1.08;100.00;98621.13;5051213;23;25133;-68
2023/01/31 00:21:21;;;;;;;19.73;7.23;;;;;;;1.07;100.00;98622.09;5083317;23;21618;-66
2023/01/31 00:23:49;;;;;;;20.97;8.03;;;;;;;1.13;100.00;98610.28;5078006;23;20198;-71
2023/01/31 00:26:21;;;;;;;16.97;7.30;;;;;;;1.12;100.00;98627.75;5063341;23;20203;-66
2023/01/31 00:28:49;;;;;;;19.30;7.77;;;;;;;1.13;100.00;98613.72;5073218;23;22384;-65
2023/01/31 00:31:16;;;;;;;19.67;7.93;;;;;;;0.99;100.00;98622.75;5081365;23;20207;-63
2023/01/31 00:33:45;;;;;;;20.77;8.17;;;;;;;1.07;100.00;98629.13;5090533;23;20203;-65
2023/01/31 00:36:14;;;;;;;21.13;7.93;;;;;;;1.09;100.00;98625.41;5069232;23;22549;-69
2023/01/31 00:38:41;;;;;;;17.13;6.50;;;;;;;1.13;100.00;98639.09;5074055;23;20212;-68
2023/01/31 00:41:08;;;;;;;17.10;6.93;;;;;;;1.13;100.00;98636.47;5064933;23;20211;-66
2023/01/31 00:43:34;;;;;;;17.00;7.30;;;;;;;1.00;100.00;98627.00;5079093;23;20600;-66
2023/01/31 00:46:01;;;;;;;23.00;7.77;;;;;;;1.12;100.00;98645.28;5072463;23;20286;-66
2023/01/31 00:48:28;;;;;;;23.80;7.87;;;;;;;1.03;100.00;98654.72;5056525;23;21734;-67
2023/01/31 00:50:54;;;;;;;21.00;6.77;;;;;;;1.07;100.00;98658.75;5074545;23;20206;-68
2023/01/31 00:53:22;;;;;;;22.00;8.13;;;;;;;1.08;100.00;98660.44;5075408;23;20265;-66
2023/01/31 00:55:50;;;;;;;19.33;7.50;;;;;;;1.03;100.00;98652.09;5078094;23;23436;-64
2023/01/31 00:58:17;;;;;;;19.97;6.97;;;;;;;1.02;100.00;98667.00;5073715;23;21956;-65
2023/01/31 01:00:44;;;;;;;23.70;7.80;;;;;;;1.11;100.00;98662.78;5061039;23;20214;-65
2023/01/31 01:03:10;;;;;;;24.53;6.77;;;;;;;1.01;100.00;98659.28;5089961;23;20205;-64
2023/01/31 01:05:37;;;;;;;20.47;7.13;;;;;;;1.09;100.00;98675.19;5062833;23;21915;-66
2023/01/31 01:08:04;;;;;;;21.43;7.00;;;;;;;1.08;100.00;98676.16;5051026;23;20301;-69
2023/01/31 01:10:30;;;;;;;16.50;6.90;;;;;;;1.14;100.00;98677.41;5085273;23;20929;-65
2023/01/31 01:12:57;;;;;;;19.17;7.07;;;;;;;1.11;100.00;98672.44;5073435;23;20251;-67
2023/01/31 01:15:24;;;;;;;21.83;7.13;;;;;;;1.09;100.00;98676.97;5038851;23;22790;-65
2023/01/31 01:17:50;;;;;;;16.47;6.73;;;;;;;1.07;100.00;98669.22;5071585;23;22096;-66
2023/01/31 01:20:17;;;;;;;17.60;6.57;;;;;;;1.00;100.00;98670.69;5079102;23;20305;-66
2023/01/31 01:22:43;;;;;;;16.33;7.00;;;;;;;0.98;100.00;98678.72;5079672;23;20951;-67
2023/01/31 01:25:10;;;;;;;17.77;6.63;;;;;;;0.92;100.00;98678.38;5079653;23;20233;-65
2023/01/31 01:27:37;;;;;;;21.33;7.43;;;;;;;1.06;100.00;98680.69;5016296;23;20211;-64
2023/01/31 01:30:05;;;;;;;20.77;7.50;;;;;;;1.00;100.00;98670.69;5060272;23;20272;-65
2023/01/31 01:32:31;;;;;;;19.67;7.13;;;;;;;1.08;100.00;98676.16;5067507;23;20555;-66
2023/01/31 01:34:58;;;;;;;17.70;7.33;;;;;;;1.10;100.00;98678.63;5063932;23;20207;-68
2023/01/31 01:37:25;;;;;;;18.23;6.93;;;;;;;1.09;100.00;98679.59;5063612;23;21460;-65
2023/01/31 01:39:51;;;;;;;19.27;6.87;;;;;;;1.09;100.00;98693.50;5072619;23;20368;-64
2023/01/31 01:42:21;;;;;;;19.37;7.87;;;;;;;1.08;100.00;98689.25;5089200;23;20222;-67
2023/01/31 01:44:54;;;;;;;23.63;7.00;;;;;;;1.09;100.00;98693.50;5064831;23;20236;-67
2023/01/31 01:47:49;;;;;;;24.50;7.20;;;;;;;0.94;100.00;98695.63;5061924;23;21294;-65
2023/01/31 01:50:29;;;;;;;15.10;6.20;;;;;;;1.13;100.00;98704.56;5088037;23;21766;-64
2023/01/31 01:53:05;;;;;;;21.37;7.50;;;;;;;1.09;100.00;98708.41;5064027;23;21290;-67
2023/01/31 01:55:36;;;;;;;21.57;7.10;;;;;;;1.07;100.00;98705.91;5060339;23;21108;-64
2023/01/31 01:58:28;;;;;;;20.40;7.23;;;;;;;1.13;100.00;98712.44;5070060;23;21340;-67
2023/01/31 02:00:54;;;;;;;20.27;7.57;;;;;;;1.11;100.00;98716.97;5075385;23;20277;-67
2023/01/31 02:03:21;;;;;;;17.33;6.90;;;;;;;1.11;100.00;98717.78;5067250;23;20214;-69
2023/01/31 02:05:53;;;;;;;17.60;6.87;;;;;;;1.06;100.00;98714.72;5071263;23;20203;-67
2023/01/31 02:08:22;;;;;;;19.20;5.97;;;;;;;1.15;100.00;98721.81;5063602;23;20250;-68
2023/01/31 02:10:53;;;;;;;19.07;6.07;;;;;;;1.10;100.00;98725.78;5051612;23;20256;-65
2023/01/31 02:13:20;;;;;;;20.90;6.93;;;;;;;1.10;100.00;98726.63;5074358;23;20207;-67
2023/01/31 02:15:47;;;;;;;24.10;6.40;;;;;;;1.08;100.00;98733.78;5061301;23;20241;-65
2023/01/31 02:18:14;;;;;;;17.03;6.93;;;;;;;1.18;100.00;98739.91;5064242;23;20262;-69
2023/01/31 02:20:58;;;;;;;16.43;5.83;;;;;;;1.19;100.00;98746.78;5054173;23;20293;-68
2023/01/31 02:23:57;;;;;;;17.23;5.93;;;;;;;1.18;100.00;98754.78;5078076;23;20263;-67
2023/01/31 02:27:01;;;;;;;17.80;5.87;;;;;;;1.20;100.00;98763.38;5071358;23;23089;-66
2023/01/31 02:29:55;;;;;;;21.93;6.37;;;;;;;1.11;100.00;98762.31;5074251;23;20206;-65
2023/01/31 02:32:40;;;;;;;20.10;6.00;;;;;;;1.10;100.00;98771.16;5078761;23;23790;-65
2023/01/31 02:35:25;;;;;;;19.23;6.13;;;;;;;1.12;100.00;98761.34;5053312;23;20211;-68
2023/01/31 02:38:30;;;;;;;16.90;5.03;;;;;;;1.24;100.00;98770.84;5071484;23;23162;-66
2023/01/31 02:41:27;;;;;;;21.33;5.40;;;;;;;1.23;100.00;98769.16;5062952;23;20286;-66
2023/01/31 02:47:30;;;;;;;20.83;6.03;;;;;;;1.26;100.00;98774.16;5093101;23;20203;-64
2023/01/31 02:49:59;;;;;;;15.30;5.37;;;;;;;1.26;100.00;98784.66;5044846;23;20685;-67
2023/01/31 02:52:37;;;;;;;18.87;5.93;;;;;;;1.29;100.00;98795.81;5069054;23;20207;-65
2023/01/31 02:58:26;;;;;;;17.47;4.77;;;;;;;1.34;100.00;98804.16;5099432;23;20226;-63
2023/01/31 03:00:55;;;;;;;20.70;5.03;;;;;;;1.29;100.00;98815.00;5088431;23;20361;-64
2023/01/31 03:03:24;;;;;;;19.83;4.70;;;;;;;1.31;100.00;98818.34;5083020;23;20457;-65
2023/01/31 03:06:28;;;;;;;20.03;5.13;;;;;;;1.30;100.00;98821.06;5070183;23;25365;-66
2023/01/31 03:09:20;;;;;;;21.00;5.00;;;;;;;1.47;100.00;98821.34;5081924;23;20205;-66
2023/01/31 03:12:29;;;;;;;16.73;5.27;;;;;;;1.48;100.00;98828.25;5093420;23;20203;-63
2023/01/31 03:15:12;;;;;;;24.67;5.40;;;;;;;1.43;100.00;98838.28;5031747;23;22750;-64
2023/01/31 03:17:56;;;;;;;26.23;4.90;;;;;;;1.50;100.00;98843.88;5078215;23;20425;-66
2023/01/31 03:20:32;;;;;;;17.63;5.27;;;;;;;1.55;100.00;98846.09;5052919;23;21181;-65
2023/01/31 03:23:09;;;;;;;14.57;4.50;;;;;;;1.53;100.00;98851.47;5068036;23;25199;-64
2023/01/31 03:25:37;;;;;;;13.50;4.27;;;;;;;1.43;100.00;98861.06;5075334;23;20206;-67
2023/01/31 03:28:09;;;;;;;21.53;4.20;;;;;;;1.40;100.00;98863.91;5092325;23;20215;-63
2023/01/31 03:30:50;;;;;;;17.97;4.13;;;;;;;1.50;100.00;98871.84;5063528;23;21631;-65
2023/01/31 03:33:25;;;;;;;24.23;4.07;;;;;;;1.52;100.00;98873.38;5056751;23;20207;-66
2023/01/31 03:36:16;;;;;;;15.20;3.83;;;;;;;1.47;100.00;98879.03;5061564;23;20489;-66
2023/01/31 03:39:08;;;;;;;22.33;3.97;;;;;;;1.54;100.00;98881.13;5037369;23;20217;-65
2023/01/31 03:41:58;;;;;;;18.83;4.10;;;;;;;1.52;100.00;98878.63;5079920;23;20237;-66
2023/01/31 03:44:55;;;;;;;21.00;3.90;;;;;;;1.43;100.00;98880.22;5050130;23;20203;-65
2023/01/31 03:47:35;;;;;;;24.20;4.77;;;;;;;1.33;100.00;98873.22;5088089;23;23416;-66
2023/01/31 03:50:06;;;;;;;19.63;3.90;;;;;;;1.30;100.00;98878.72;5083111;23;20206;-65
2023/01/31 03:52:37;;;;;;;17.93;3.90;;;;;;;1.33;100.00;98881.91;5064036;23;20565;-65
2023/01/31 03:55:14;;;;;;;25.33;4.40;;;;;;;1.40;100.00;98874.38;5051781;23;20209;-65
2023/01/31 03:57:42;;;;;;;29.17;4.57;;;;;;;1.41;100.00;98881.31;5069779;23;20206;-67
2023/01/31 04:00:13;;;;;;;28.83;3.80;;;;;;;1.45;100.00;98880.94;5062507;23;20362;-66
2023/01/31 04:02:40;;;;;;;20.87;3.73;;;;;;;1.44;100.00;98884.50;5072684;23;20203;-65
2023/01/31 04:05:09;;;;;;;26.87;4.13;;;;;;;1.40;100.00;98887.50;5078306;23;20632;-66
2023/01/31 04:07:37;;;;;;;22.73;4.10;;;;;;;1.37;100.00;98890.38;5064570;23;20960;-65
2023/01/31 04:10:07;;;;;;;17.90;3.80;;;;;;;1.43;100.00;98892.50;5051990;23;20206;-68
2023/01/31 04:12:35;;;;;;;17.73;3.40;;;;;;;1.34;100.00;98885.38;5064730;23;21067;-65
2023/01/31 04:15:06;;;;;;;19.40;3.30;;;;;;;1.32;100.00;98897.78;5073770;23;20347;-64
2023/01/31 04:17:33;;;;;;;25.40;3.93;;;;;;;1.38;100.00;98892.03;5063115;23;20356;-66
2023/01/31 04:20:00;;;;;;;25.90;3.93;;;;;;;1.25;100.00;98893.03;5065063;23;20210;-65
2023/01/31 04:22:26;;;;;;;22.13;3.90;;;;;;;1.44;100.00;98894.97;5091090;23;21206;-64
2023/01/31 04:24:53;;;;;;;25.77;3.97;;;;;;;1.27;100.00;98900.78;5067761;23;21110;-69
2023/01/31 04:27:19;;;;;;;16.03;3.57;;;;;;;1.35;100.00;98906.22;5062322;23;20389;-66
2023/01/31 04:29:46;;;;;;;20.40;4.37;;;;;;;1.37;100.00;98919.19;5071633;23;20233;-65
2023/01/31 04:32:12;;;;;;;26.73;3.77;;;;;;;1.21;100.00;98917.78;5085011;23;20226;-61
2023/01/31 04:34:39;;;;;;;18.30;3.50;;;;;;;1.43;100.00;98921.34;5066451;23;22822;-66
2023/01/31 04:37:05;;;;;;;22.93;3.30;;;;;;;1.42;100.00;98927.50;5067495;23;21362;-66
2023/01/31 04:39:32;;;;;;;27.63;3.97;;;;;;;1.37;100.00;98940.16;5084142;23;20210;-65
2023/01/31 04:41:58;;;;;;;20.30;3.80;;;;;;;1.32;100.00;98939.69;5067887;23;20210;-64
2023/01/31 04:44:25;;;;;;;28.80;4.00;;;;;;;1.23;100.00;98936.84;5050212;23;22661;-64
2023/01/31 04:46:52;;;;;;;21.77;3.70;;;;;;;1.28;100.00;98939.09;5067730;23;20206;-68
2023/01/31 04:49:18;;;;;;;23.63;3.93;;;;;;;1.24;100.00;98938.53;5059783;23;20250;-66
2023/01/31 04:51:45;;;;;;;16.17;3.47;;;;;;;1.30;100.00;98944.22;5074756;23;21586;-64
2023/01/31 04:54:11;;;;;;;28.43;4.30;;;;;;;1.27;100.00;98947.94;5069649;23;22137;-63
2023/01/31 04:56:38;;;;;;;20.53;4.13;;;;;;;1.25;100.00;98950.66;5057446;23;20311;-67
2023/01/31 04:59:05;;;;;;;21.83;3.33;;;;;;;1.40;100.00;98955.63;5062839;23;20286;-63
2023/01/31 05:01:31;;;;;;;24.17;3.97;;;;;;;1.49;100.00;98957.50;5087054;23;20636;-66
2023/01/31 05:03:58;;;;;;;24.63;3.57;;;;;;;1.33;100.00;98967.56;5076335;23;25635;-66
2023/01/31 05:06:24;;;;;;;27.17;4.20;;;;;;;1.29;100.00;98971.38;5065843;23;22219;-66
2023/01/31 05:08:53;;;;;;;16.77;3.87;;;;;;;1.37;100.00;98971.59;5090299;23;20221;-67
2023/01/31 05:11:19;;;;;;;18.53;4.40;;;;;;;1.44;100.00;98975.41;5094537;23;20268;-65
2023/01/31 05:13:47;;;;;;;21.63;3.47;;;;;;;1.48;100.00;98987.31;5082469;23;20207;-65
2023/01/31 05:16:13;;;;;;;24.67;3.73;;;;;;;1.47;100.00;98990.88;5064959;23;20198;-66
2023/01/31 05:18:40;;;;;;;28.13;3.47;;;;;;;1.45;100.00;98992.78;5068462;23;21579;-64
2023/01/31 05:21:07;;;;;;;20.07;3.73;;;;;;;1.54;100.00;99002.53;5064618;23;21080;-65
2023/01/31 05:23:34;;;;;;;24.20;3.33;;;;;;;1.56;100.00;99000.63;5061420;23;21236;-68
2023/01/31 05:26:02;;;;;;;25.63;4.37;;;;;;;1.39;100.00;99009.03;5053879;23;20622;-66
2023/01/31 05:28:29;;;;;;;21.57;4.27;;;;;;;1.48;100.00;99010.91;5064314;23;21470;-64
2023/01/31 05:31:01;;;;;;;17.43;2.70;;;;;;;1.45;100.00;99013.75;5071358;23;23016;-67
2023/01/31 05:33:30;;;;;;;16.73;3.27;;;;;;;1.49;100.00;99017.81;5067632;23;22050;-67
2023/01/31 05:35:57;;;;;;;22.57;3.10;;;;;;;1.56;100.00;99032.09;5081823;23;20203;-64
2023/01/31 05:38:24;;;;;;;25.13;5.27;;;;;;;1.46;100.00;99041.66;5055534;23;20243;-65
2023/01/31 05:40:50;;;;;;;26.67;3.47;;;;;;;1.52;100.00;99045.56;5071858;23;20204;-66
2023/01/31 05:43:17;;;;;;;18.73;3.47;;;;;;;1.57;100.00;99043.41;5058966;23;22060;-63
2023/01/31 05:45:46;;;;;;;14.57;2.87;;;;;;;1.61;100.00;99045.66;5069511;23;20410;-65
2023/01/31 05:48:12;;;;;;;21.57;3.10;;;;;;;1.51;100.00;99055.22;5064220;23;20282;-65
2023/01/31 05:50:39;;;;;;;20.63;4.23;;;;;;;1.55;100.00;99056.66;5070555;23;20207;-67
2023/01/31 05:53:06;;;;;;;24.53;3.60;;;;;;;1.63;100.00;99062.09;5059269;23;20208;-66
2023/01/31 05:55:32;;;;;;;23.63;3.40;;;;;;;1.51;100.00;99067.50;5069598;23;20229;-65
2023/01/31 05:57:59;;;;;;;20.23;3.63;;;;;;;1.66;100.00;99074.13;5074790;23;20209;-65
2023/01/31 06:00:26;;;;;;;22.13;3.60;;;;;;;1.47;100.00;99078.22;5065865;23;21474;-62
2023/01/31 06:02:57;;;;;;;17.73;3.23;;;;;;;1.55;100.00;99071.56;5058493;23;20203;-67
2023/01/31 06:05:24;;;;;;;22.67;3.60;;;;;;;1.44;100.00;99085.50;5073466;23;20621;-65
2023/01/31 06:07:50;;;;;;;19.77;3.60;;;;;;;1.52;100.00;99083.09;5079773;23;21738;-66
2023/01/31 06:10:17;;;;;;;27.77;4.80;;;;;;;1.43;100.00;99092.53;5077065;23;20208;-64
2023/01/31 06:12:46;;;;;;;23.33;3.60;;;;;;;1.52;100.00;99092.75;5064025;23;20294;-68
2023/01/31 06:15:12;;;;;;;15.53;3.40;;;;;;;1.37;100.00;99098.25;5061575;23;20373;-67
2023/01/31 06:17:39;;;;;;;15.57;3.20;;;;;;;1.41;100.00;99106.72;5056158;23;20366;-64
2023/01/31 06:20:06;;;;;;;20.30;3.77;;;;;;;1.40;100.00;99105.84;5079555;23;20230;-64
2023/01/31 06:22:33;;;;;;;13.60;3.60;;;;;;;1.41;100.00;99115.41;5065497;23;20200;-65
2023/01/31 06:24:59;;;;;;;17.93;3.17;;;;;;;1.50;100.00;99110.38;5081029;23;22756;-65
2023/01/31 06:27:26;;;;;;;20.23;3.60;;;;;;;1.47;100.00;99114.06;5062818;23;20998;-65
2023/01/31 06:29:52;;;;;;;21.20;2.83;;;;;;;1.55;100.00;99118.75;5063803;23;20207;-63
2023/01/31 06:32:19;;;;;;;20.90;3.30;;;;;;;1.45;100.00;99119.47;5065671;23;20291;-70
2023/01/31 06:34:45;;;;;;;19.90;3.40;;;;;;;1.51;100.00;99128.63;5069307;23;20539;-67
2023/01/31 06:37:12;;;;;;;24.73;3.53;;;;;;;1.52;100.00;99125.03;5101153;23;20203;-66
2023/01/31 06:39:39;;;;;;;14.43;3.07;;;;;;;1.43;100.00;99133.63;5085296;23;20208;-67
2023/01/31 06:42:05;;;;;;;18.03;3.33;;;;;;;1.51;100.00;99136.47;5080077;23;20286;-67
2023/01/31 06:44:32;;;;;;;18.00;3.30;;;;;;;1.54;100.00;99140.66;5052638;23;20200;-66
2023/01/31 06:47:00;;;;;;;19.07;3.73;;;;;;;1.46;100.00;99144.69;5072734;23;20200;-69
2023/01/31 06:49:26;;;;;;;25.30;3.97;;;;;;;1.56;100.00;99142.19;5065668;23;21040;-66
2023/01/31 06:51:53;;;;;;;14.27;3.27;;;;;;;1.53;100.00;99145.06;5048462;23;21789;-67
2023/01/31 06:54:19;;;;;;;18.93;3.53;;;;;;;1.45;100.00;99144.81;5076543;23;21500;-69
2023/01/31 06:56:47;;;;;;;17.77;3.37;;;;;;;1.49;100.00;99148.88;5062931;23;20200;-66
2023/01/31 06:59:13;;;;;;;21.07;3.70;;;;;;;1.56;100.00;99155.31;5061357;23;21862;-66
2023/01/31 07:01:40;;;;;;;17.87;3.50;;;;;;;1.48;100.00;99155.91;5071275;23;24651;-66
2023/01/31 07:04:06;;;;;;;12.97;3.20;;;;;;;1.48;100.00;99161.16;5066732;23;20273;-66
2023/01/31 07:06:33;;;;;;;18.13;3.67;;;;;;;1.52;100.00;99159.09;5072522;23;20216;-65
2023/01/31 07:08:59;;;;;;;15.63;3.40;;;;;;;1.44;100.00;99161.50;5069127;23;20545;-65
2023/01/31 07:11:26;;;;;;;22.43;3.73;;;;;;;1.54;100.00;99174.72;5081606;23;20235;-71
2023/01/31 07:13:52;;;;;;;15.37;3.50;;;;;;;1.54;100.00;99174.72;5062892;23;21352;-68
2023/01/31 07:16:21;;;;;;;18.20;3.97;;;;;;;1.50;100.00;99195.13;5075765;23;20207;-67
2023/01/31 07:18:51;;;;;;;20.80;3.73;;;;;;;1.53;100.00;99197.50;5057378;23;20289;-65
2023/01/31 07:21:18;;;;;;;24.57;4.50;;;;;;;1.58;100.00;99197.97;5107554;23;20291;-67
2023/01/31 07:23:45;;;;;;;16.33;3.57;;;;;;;1.50;100.00;99199.50;5085785;23;20208;-68
2023/01/31 07:26:12;;;;;;;21.23;3.23;;;;;;;1.57;100.00;99211.19;5068294;23;21477;-67
2023/01/31 07:28:39;;;;;;;16.50;3.97;;;;;;;1.45;100.00;99218.22;5037331;23;21361;-69
2023/01/31 07:31:13;;;;;;;20.07;3.77;;;;;;;1.58;100.00;99216.31;5064106;23;20205;-69
2023/01/31 07:33:40;;;;;;;13.10;3.40;;;;;;;1.54;100.00;99217.50;5055802;23;22994;-71
2023/01/31 07:36:09;;;;;;;19.67;3.17;;;;;;;1.52;100.00;99216.78;5055409;23;20200;-69
2023/01/31 07:38:35;;;;;;;19.53;2.93;;;;;;;1.46;100.00;99215.47;5064307;23;20219;-70
2023/01/31 07:41:03;;;;;;;19.80;3.53;;;;;;;1.61;100.00;99231.81;5067290;23;20640;-70
2023/01/31 07:43:31;;;;;;;15.13;3.27;;;;;;;1.64;100.00;99243.88;5062753;23;20281;-70
2023/01/31 07:45:57;;;;;;;15.27;3.03;;;;;;;1.58;100.00;99236.47;5058639;23;20250;-68
2023/01/31 07:48:24;;;;;;;19.67;3.10;;;;;;;1.58;100.00;99245.16;5085359;23;20200;-72
2023/01/31 07:50:53;;;;;;;18.90;3.80;;;;;;;1.56;100.00;99241.81;5064688;23;20207;-68
2023/01/31 07:53:19;;;;;;;18.87;3.33;;;;;;;1.66;100.00;99247.19;5040709;23;26099;-70
2023/01/31 07:55:46;;;;;;;26.33;4.03;;;;;;;1.64;100.00;99255.19;5054094;23;20231;-68
2023/01/31 07:58:14;;;;;;;19.77;4.37;;;;;;;1.74;100.00;99260.56;5082430;23;21993;-66
2023/01/31 08:03:31;;;;;;;15.43;2.80;;;;;;;1.71;99.90;99266.06;5098403;23;20207;-68
2023/01/31 08:06:09;;;;;;;20.53;3.77;;;;;;;1.65;99.33;99267.34;5078238;23;21432;-68
2023/01/31 08:08:37;;;;;;;13.17;3.03;;;;;;;1.66;98.60;99271.66;5058871;23;20295;-71
2023/01/31 08:11:04;;;;;;;11.80;3.47;;;;;;;1.81;98.98;99271.44;5078767;23;20591;-67
2023/01/31 08:13:32;;;;;;;17.77;3.37;;;;;;;1.72;98.84;99277.38;5085304;23;20212;-69
2023/01/31 08:15:59;;;;;;;13.63;3.10;;;;;;;1.68;98.86;99282.81;5066244;23;20265;-68
2023/01/31 08:18:25;;;;;;;17.83;3.67;;;;;;;1.67;98.77;99288.22;5080147;23;20210;-69
2023/01/31 08:20:52;;;;;;;14.63;3.10;;;;;;;1.58;98.59;99286.28;5063810;23;20208;-66
2023/01/31 08:23:19;;;;;;;16.37;4.17;;;;;;;1.70;98.75;99298.47;5074956;23;20309;-69
2023/01/31 08:25:45;;;;;;;18.80;4.17;;;;;;;1.69;98.58;99299.41;5064428;23;21187;-73
2023/01/31 08:28:12;;;;;;;18.10;2.90;;;;;;;1.61;98.42;99304.41;5080353;23;20207;-72
2023/01/31 08:30:43;;;;;;;16.27;3.20;;;;;;;1.76;97.49;99303.25;5060710;23;21707;-69
2023/01/31 08:33:21;;;;;;;16.97;3.20;;;;;;;1.72;96.98;99306.22;5068252;23;20256;-67
2023/01/31 08:35:48;;;;;;;12.83;2.83;;;;;;;1.79;96.97;99310.88;5081718;23;20208;-69
2023/01/31 08:38:14;;;;;;;19.23;3.33;;;;;;;1.83;96.68;99311.50;5072744;23;20204;-70
2023/01/31 08:40:42;;;;;;;16.53;4.13;;;;;;;1.85;95.71;99305.16;5066630;23;20275;-69
2023/01/31 08:43:09;;;;;;;13.97;3.67;;;;;;;1.84;94.58;99307.91;5072131;23;20202;-69
2023/01/31 08:45:35;;;;;;;17.80;4.53;;;;;;;1.91;94.20;99309.09;5111888;23;21683;-70
2023/01/31 08:48:02;;;;;;;28.20;5.20;;;;;;;2.06;93.96;99310.56;5124330;23;22342;-69
2023/01/31 08:50:30;;;;;;;17.97;4.40;;;;;;;2.10;93.17;99317.22;5113607;23;20217;-73
2023/01/31 08:53:03;;;;;;;19.67;3.60;;;;;;;2.83;89.59;99322.88;5099079;23;20358;-77
2023/01/31 08:55:30;;;;;;;17.10;3.23;;;;;;;2.65;88.57;99308.59;5106401;23;20203;-71
2023/01/31 08:57:57;;;;;;;21.60;4.50;;;;;;;2.60;88.80;99326.50;5086504;23;20947;-73
2023/01/31 09:00:25;;;;;;;10.27;2.83;;;;;;;2.40;90.17;99317.59;5079565;23;21384;-71
2023/01/31 09:02:57;;;;;;;18.03;3.40;;;;;;;2.25;89.57;99332.75;5059454;23;20204;-73
2023/01/31 09:05:25;;;;;;;13.90;2.77;;;;;;;2.17;89.54;99327.25;5049327;23;20199;-72
2023/01/31 09:07:53;;;;;;;19.90;3.13;;;;;;;2.11;90.42;99332.03;5087714;23;20291;-71
2023/01/31 09:10:20;;;;;;;11.90;2.40;;;;;;;2.17;89.11;99324.63;5088213;23;20207;-72
2023/01/31 09:12:47;;;;;;;19.30;3.00;;;;;;;2.19;87.99;99320.09;5041491;23;20322;-71
2023/01/31 09:15:14;;;;;;;14.37;3.00;;;;;;;2.25;89.56;99333.59;5077385;23;21315;-70
2023/01/31 09:17:41;;;;;;;13.67;2.40;;;;;;;2.26;89.20;99335.25;5071368;23;20226;-71
2023/01/31 09:20:09;;;;;;;8.37;2.30;;;;;;;2.19;88.87;99343.72;5063988;23;20215;-72
2023/01/31 09:22:36;;;;;;;14.63;3.07;;;;;;;2.11;89.76;99339.91;5045457;23;20693;-71
2023/01/31 09:25:03;;;;;;;19.07;3.80;;;;;;;1.95;89.40;99346.44;5079830;23;20378;-73
2023/01/31 09:27:30;;;;;;;16.87;2.50;;;;;;;1.94;89.80;99345.59;5059937;23;20212;-70
2023/01/31 09:29:56;;;;;;;18.37;2.83;;;;;;;2.05;89.82;99342.97;5069764;23;22967;-72
2023/01/31 09:32:23;;;;;;;12.77;2.63;;;;;;;2.13;89.29;99345.03;5076547;23;20938;-70
2023/01/31 09:34:49;;;;;;;10.47;2.40;;;;;;;2.16;89.93;99350.03;5090546;23;20278;-70
2023/01/31 09:37:16;;;;;;;14.33;2.67;;;;;;;2.20;89.55;99356.72;5083561;23;20204;-72
2023/01/31 09:39:43;;;;;;;16.10;2.53;;;;;;;2.19;89.66;99362.09;5055172;23;20275;-72
2023/01/31 09:42:22;;;;;;;9.57;2.17;;;;;;;2.11;89.14;99353.03;5061330;23;20211;-70
2023/01/31 09:45:06;;;;;;;17.17;2.60;;;;;;;2.15;88.19;99365.91;5064467;23;21706;-73
2023/01/31 09:47:37;;;;;;;12.93;2.37;;;;;;;2.01;88.92;99367.78;5104940;23;20203;-73
2023/01/31 09:50:17;;;;;;;23.93;2.83;;;;;;;2.18;88.09;99370.91;5088824;23;20604;-69
2023/01/31 09:52:44;;;;;;;19.70;2.87;;;;;;;2.20;87.40;99372.47;5076526;23;22121;-65
2023/01/31 09:55:18;;;;;;;14.43;2.47;;;;;;;2.21;88.08;99368.88;5068532;23;20212;-67
2023/01/31 09:58:10;;;;;;;13.27;3.13;;;;;;;2.22;87.57;99372.34;5073459;23;20281;-66
2023/01/31 10:00:47;;;;;;;13.43;2.53;;;;;;;2.38;86.36;99380.69;5076965;23;20613;-66
2023/01/31 10:04:07;;;;;;;12.37;3.10;;;;;;;2.20;86.04;99361.97;5061170;23;20908;-68
2023/01/31 10:06:54;;;;;;;13.77;2.70;;;;;;;2.20;85.48;99367.22;5008211;23;20213;-67
2023/01/31 10:09:26;;;;;;;14.67;2.53;;;;;;;2.35;85.33;99372.25;5055705;23;23092;-66
2023/01/31 10:12:14;;;;;;;15.37;2.60;;;;;;;2.35;86.04;99359.13;5081314;23;20204;-67
2023/01/31 10:14:49;;;;;;;16.90;3.00;;;;;;;2.38;85.10;99370.19;5075210;23;21462;-69
2023/01/31 10:17:30;;;;;;;15.23;3.40;;;;;;;2.31;85.58;99354.09;5075533;23;20750;-68
2023/01/31 10:20:02;;;;;;;17.57;3.40;;;;;;;2.42;85.40;99361.13;5087582;23;20274;-68
2023/01/31 10:22:46;;;;;;;23.93;5.33;;;;;;;2.32;86.15;99352.31;5059940;23;20249;-66
2023/01/31 10:25:25;;;;;;;17.70;3.27;;;;;;;2.39;85.71;99371.03;5068472;23;20269;-69
2023/01/31 10:28:05;;;;;;;20.63;3.90;;;;;;;2.38;84.52;99372.00;5076935;23;20229;-69
2023/01/31 10:31:06;;;;;;;20.90;2.83;;;;;;;2.40;84.06;99368.28;5045458;23;20586;-70
2023/01/31 10:33:39;;;;;;;15.10;3.17;;;;;;;2.39;85.07;99376.28;5074693;23;21064;-69
2023/01/31 10:36:13;;;;;;;19.67;4.33;;;;;;;2.58;85.07;99359.94;5079255;23;21501;-66
2023/01/31 10:38:51;;;;;;;20.30;4.10;;;;;;;2.58;84.51;99367.84;5048629;23;20376;-69
2023/01/31 10:41:24;;;;;;;11.97;3.00;;;;;;;2.66;82.92;99354.91;5089788;23;20859;-67
2023/01/31 10:43:59;;;;;;;17.50;3.00;;;;;;;2.71;81.37;99360.63;5079319;23;20235;-65
2023/01/31 10:46:26;;;;;;;13.17;2.70;;;;;;;2.64;81.06;99367.34;5126497;23;20333;-67
2023/01/31 10:48:53;;;;;;;20.87;3.13;;;;;;;2.70;81.24;99358.97;5107398;23;20264;-67
2023/01/31 10:51:34;;;;;;;14.20;3.10;;;;;;;2.75;80.27;99354.19;5114982;23;20209;-69
2023/01/31 10:54:26;;;;;;;20.13;3.33;;;;;;;2.67;79.38;99354.81;5055359;23;20308;-68
2023/01/31 10:56:53;;;;;;;12.67;2.57;;;;;;;2.58;79.47;99359.94;5140323;23;20351;-66
2023/01/31 10:59:25;;;;;;;14.80;2.63;;;;;;;2.61;78.74;99359.69;5057364;23;21174;-66
2023/01/31 11:01:52;;;;;;;10.50;2.27;;;;;;;2.62;78.63;99366.63;5050631;23;20218;-67
2023/01/31 11:04:29;;;;;;;11.33;2.53;;;;;;;2.69;78.54;99360.78;5078974;23;21401;-64
2023/01/31 11:06:58;;;;;;;7.20;2.23;;;;;;;2.96;77.67;99354.28;5080771;23;20212;-66
2023/01/31 11:09:29;;;;;;;15.00;2.83;;;;;;;3.09;78.35;99359.34;5103211;23;21115;-64
2023/01/31 11:12:00;;;;;;;11.97;2.37;;;;;;;3.15;77.79;99351.00;5134892;23;21074;-66
2023/01/31 11:14:29;;;;;;;12.73;2.40;;;;;;;3.03;76.89;99360.69;5091184;23;20305;-68
2023/01/31 11:17:05;;;;;;;10.00;1.70;;;;;;;2.90;76.94;99360.88;5096556;23;20577;-66
2023/01/31 11:19:36;;;;;;;11.37;2.43;;;;;;;3.00;78.05;99371.47;5068595;23;20207;-64
2023/01/31 11:22:04;;;;;;;14.30;2.50;;;;;;;2.99;76.32;99363.69;5078466;23;20238;-70
2023/01/31 11:24:33;;;;;;;12.97;2.43;;;;;;;2.92;76.76;99382.56;5096899;23;20205;-67
2023/01/31 11:27:05;;;;;;;16.43;2.10;;;;;;;2.83;75.98;99370.16;5061160;23;20306;-66
2023/01/31 11:29:37;;;;;;;10.73;2.00;;;;;;;2.85;76.95;99384.00;5087370;23;20204;-66
2023/01/31 11:32:13;;;;;;;10.93;2.70;;;;;;;2.88;77.32;99381.16;5070906;23;20249;-67
2023/01/31 11:34:54;;;;;;;17.40;2.53;;;;;;;2.72;75.94;99385.97;5058018;23;20203;-68
2023/01/31 11:37:21;;;;;;;9.33;2.00;;;;;;;2.65;76.12;99376.91;5074288;23;20320;-67
2023/01/31 11:39:58;;;;;;;13.37;2.70;;;;;;;2.65;76.15;99382.97;5061565;23;20207;-68
2023/01/31 11:42:25;;;;;;;10.77;1.80;;;;;;;2.65;75.46;99382.97;5051915;23;20755;-65
2023/01/31 11:45:03;;;;;;;11.53;2.13;;;;;;;2.73;75.09;99392.88;5066598;23;20761;-67
2023/01/31 11:47:45;;;;;;;10.57;2.30;;;;;;;2.71;73.94;99381.66;5054815;23;20199;-66
2023/01/31 11:50:19;;;;;;;9.97;2.20;;;;;;;2.69;73.95;99379.16;5074937;23;20605;-62
2023/01/31 11:52:53;;;;;;;8.27;2.50;;;;;;;2.59;74.32;99366.88;5062814;23;20203;-66
2023/01/31 11:55:19;;;;;;;10.13;2.17;;;;;;;2.62;75.70;99371.88;5056823;23;20237;-66
2023/01/31 11:57:46;;;;;;;11.73;2.73;;;;;;;2.73;75.96;99370.06;5075298;23;20203;-65